sensor_id;sensor_type;location;lat;lon;timestamp;temperature;humidity
11009;DHT22;5557;51.670;7.788;2022-09-09T00:02:21;15.30;99.90
11009;DHT22;5557;51.670;7.788;2022-09-09T00:05:08;15.20;99.90
11009;DHT22;5557;51.670;7.788;2022-09-09T00:07:51;15.20;99.90
11009;DHT22;5557;51.670;7.788;2022-09-09T00:10:34;15.20;99.90
11009;DHT22;5557;51.670;7.788;2022-09-09T00:13:22;15.20;99.90
11009;DHT22;5557;51.670;7.788;2022-09-09T00:16:17;15.10;99.90
11009;DHT22;5557;51.670;7.788;2022-09-09T00:19:07;15.10;99.90
11009;DHT22;5557;51.670;7.788;2022-09-09T00:21:42;15.10;99.90
11009;DHT22;5557;51.670;7.788;2022-09-09T00:24:35;15.10;99.90
11009;DHT22;5557;51.670;7.788;2022-09-09T00:27:16;15.10;99.90
11009;DHT22;5557;51.670;7.788;2022-09-09T00:29:53;15.10;99.90
11009;DHT22;5557;51.670;7.788;2022-09-09T00:32:21;15.10;99.90
11009;DHT22;5557;51.670;7.788;2022-09-09T00:34:52;15.10;99.90
11009;DHT22;5557;51.670;7.788;2022-09-09T00:37:22;15.00;99.90
11009;DHT22;5557;51.670;7.788;2022-09-09T00:39:54;15.00;99.90
11009;DHT22;5557;51.670;7.788;2022-09-09T00:42:25;15.00;99.90
11009;DHT22;5557;51.670;7.788;2022-09-09T00:45:02;14.90;99.90
11009;DHT22;5557;51.670;7.788;2022-09-09T00:47:46;14.90;99.90
11009;DHT22;5557;51.670;7.788;2022-09-09T00:50:47;14.80;99.90
11009;DHT22;5557;51.670;7.788;2022-09-09T00:56:20;14.80;99.90
11009;DHT22;5557;51.670;7.788;2022-09-09T00:59:30;14.70;99.90
11009;DHT22;5557;51.670;7.788;2022-09-09T01:01:59;14.70;99.90
11009;DHT22;5557;51.670;7.788;2022-09-09T01:04:36;14.60;99.90
11009;DHT22;5557;51.670;7.788;2022-09-09T01:07:18;14.60;99.90
11009;DHT22;5557;51.670;7.788;2022-09-09T01:12:36;14.50;99.90
11009;DHT22;5557;51.670;7.788;2022-09-09T01:15:19;14.50;99.90
11009;DHT22;5557;51.670;7.788;2022-09-09T01:18:09;14.40;99.90
11009;DHT22;5557;51.670;7.788;2022-09-09T01:21:09;14.40;99.90
11009;DHT22;5557;51.670;7.788;2022-09-09T01:25:11;14.50;99.90
11009;DHT22;5557;51.670;7.788;2022-09-09T01:27:05;14.50;99.90
11009;DHT22;5557;51.670;7.788;2022-09-09T01:29:33;14.50;99.90
11009;DHT22;5557;51.670;7.788;2022-09-09T01:32:02;14.50;99.90
11009;DHT22;5557;51.670;7.788;2022-09-09T01:34:40;14.50;99.90
11009;DHT22;5557;51.670;7.788;2022-09-09T01:37:12;14.60;99.90
11009;DHT22;5557;51.670;7.788;2022-09-09T01:39:42;14.60;99.90
11009;DHT22;5557;51.670;7.788;2022-09-09T01:42:13;14.50;99.90
11009;DHT22;5557;51.670;7.788;2022-09-09T01:44:41;14.50;99.90
11009;DHT22;5557;51.670;7.788;2022-09-09T01:47:08;14.60;99.90
11009;DHT22;5557;51.670;7.788;2022-09-09T01:49:35;14.60;99.90
11009;DHT22;5557;51.670;7.788;2022-09-09T01:52:02;14.60;99.90
11009;DHT22;5557;51.670;7.788;2022-09-09T01:54:31;14.60;99.90
11009;DHT22;5557;51.670;7.788;2022-09-09T01:57:27;14.60;99.90
11009;DHT22;5557;51.670;7.788;2022-09-09T02:00:10;14.60;99.90
11009;DHT22;5557;51.670;7.788;2022-09-09T02:03:05;14.60;99.90
11009;DHT22;5557;51.670;7.788;2022-09-09T02:08:53;14.60;99.90
11009;DHT22;5557;51.670;7.788;2022-09-09T02:11:24;14.50;99.90
11009;DHT22;5557;51.670;7.788;2022-09-09T02:13:56;14.50;99.90
11009;DHT22;5557;51.670;7.788;2022-09-09T02:16:44;14.50;99.90
11009;DHT22;5557;51.670;7.788;2022-09-09T02:19:25;14.50;99.90
11009;DHT22;5557;51.670;7.788;2022-09-09T02:21:55;14.50;99.90
11009;DHT22;5557;51.670;7.788;2022-09-09T02:24:22;14.50;99.90
11009;DHT22;5557;51.670;7.788;2022-09-09T02:26:52;14.50;99.90
11009;DHT22;5557;51.670;7.788;2022-09-09T02:29:34;14.40;99.90
11009;DHT22;5557;51.670;7.788;2022-09-09T02:32:05;14.40;99.90
11009;DHT22;5557;51.670;7.788;2022-09-09T02:34:38;14.40;99.90
11009;DHT22;5557;51.670;7.788;2022-09-09T02:37:08;14.40;99.90
11009;DHT22;5557;51.670;7.788;2022-09-09T02:39:35;14.40;99.90
11009;DHT22;5557;51.670;7.788;2022-09-09T02:42:04;14.40;99.90
11009;DHT22;5557;51.670;7.788;2022-09-09T02:44:31;14.40;99.90
11009;DHT22;5557;51.670;7.788;2022-09-09T02:50:03;14.50;99.90
11009;DHT22;5557;51.670;7.788;2022-09-09T02:55:47;14.70;99.90
11009;DHT22;5557;51.670;7.788;2022-09-09T02:58:17;14.80;99.90
11009;DHT22;5557;51.670;7.788;2022-09-09T03:00:49;14.80;99.90
11009;DHT22;5557;51.670;7.788;2022-09-09T03:03:18;14.90;99.90
11009;DHT22;5557;51.670;7.788;2022-09-09T03:05:46;14.90;99.90
11009;DHT22;5557;51.670;7.788;2022-09-09T03:08:13;14.90;99.90
11009;DHT22;5557;51.670;7.788;2022-09-09T03:10:40;15.00;99.90
11009;DHT22;5557;51.670;7.788;2022-09-09T03:13:07;15.00;99.90
11009;DHT22;5557;51.670;7.788;2022-09-09T03:15:35;15.00;99.90
11009;DHT22;5557;51.670;7.788;2022-09-09T03:18:02;15.10;99.90
11009;DHT22;5557;51.670;7.788;2022-09-09T03:20:30;15.00;99.90
11009;DHT22;5557;51.670;7.788;2022-09-09T03:22:58;15.00;99.90
11009;DHT22;5557;51.670;7.788;2022-09-09T03:25:25;15.00;99.90
11009;DHT22;5557;51.670;7.788;2022-09-09T03:27:53;15.10;99.90
11009;DHT22;5557;51.670;7.788;2022-09-09T03:30:23;15.10;99.90
11009;DHT22;5557;51.670;7.788;2022-09-09T03:32:51;15.10;99.90
11009;DHT22;5557;51.670;7.788;2022-09-09T03:35:18;15.10;99.90
11009;DHT22;5557;51.670;7.788;2022-09-09T03:37:46;15.10;99.90
11009;DHT22;5557;51.670;7.788;2022-09-09T03:40:13;15.10;99.90
11009;DHT22;5557;51.670;7.788;2022-09-09T03:42:40;15.10;99.90
11009;DHT22;5557;51.670;7.788;2022-09-09T03:45:09;15.10;99.90
11009;DHT22;5557;51.670;7.788;2022-09-09T03:47:37;15.10;99.90
11009;DHT22;5557;51.670;7.788;2022-09-09T03:50:05;15.10;99.90
11009;DHT22;5557;51.670;7.788;2022-09-09T03:52:39;15.10;99.90
11009;DHT22;5557;51.670;7.788;2022-09-09T03:55:08;15.10;99.90
11009;DHT22;5557;51.670;7.788;2022-09-09T03:57:35;15.10;99.90
11009;DHT22;5557;51.670;7.788;2022-09-09T04:00:07;15.10;99.90
11009;DHT22;5557;51.670;7.788;2022-09-09T04:02:35;15.00;99.90
11009;DHT22;5557;51.670;7.788;2022-09-09T04:05:02;15.10;99.90
11009;DHT22;5557;51.670;7.788;2022-09-09T04:07:28;15.10;99.90
11009;DHT22;5557;51.670;7.788;2022-09-09T04:09:55;15.00;99.90
11009;DHT22;5557;51.670;7.788;2022-09-09T04:12:23;15.00;99.90
11009;DHT22;5557;51.670;7.788;2022-09-09T04:14:50;15.10;99.90
11009;DHT22;5557;51.670;7.788;2022-09-09T04:17:17;15.00;99.90
11009;DHT22;5557;51.670;7.788;2022-09-09T04:19:44;15.10;99.90
11009;DHT22;5557;51.670;7.788;2022-09-09T04:22:11;15.10;99.90
11009;DHT22;5557;51.670;7.788;2022-09-09T04:24:38;15.10;99.90
11009;DHT22;5557;51.670;7.788;2022-09-09T04:27:05;15.10;99.90
11009;DHT22;5557;51.670;7.788;2022-09-09T04:29:32;15.10;99.90
11009;DHT22;5557;51.670;7.788;2022-09-09T04:31:59;15.10;99.90
11009;DHT22;5557;51.670;7.788;2022-09-09T04:34:26;15.10;99.90
11009;DHT22;5557;51.670;7.788;2022-09-09T04:36:52;15.10;99.90
11009;DHT22;5557;51.670;7.788;2022-09-09T04:39:19;15.10;99.90
11009;DHT22;5557;51.670;7.788;2022-09-09T04:41:46;15.10;99.90
11009;DHT22;5557;51.670;7.788;2022-09-09T04:44:14;15.20;99.90
11009;DHT22;5557;51.670;7.788;2022-09-09T04:46:41;15.20;99.90
11009;DHT22;5557;51.670;7.788;2022-09-09T04:49:08;15.20;99.90
11009;DHT22;5557;51.670;7.788;2022-09-09T04:51:40;15.20;99.90
11009;DHT22;5557;51.670;7.788;2022-09-09T04:54:07;15.20;99.90
11009;DHT22;5557;51.670;7.788;2022-09-09T04:56:34;15.20;99.90
11009;DHT22;5557;51.670;7.788;2022-09-09T04:59:02;15.20;99.90
11009;DHT22;5557;51.670;7.788;2022-09-09T05:01:29;15.20;99.90
11009;DHT22;5557;51.670;7.788;2022-09-09T05:03:56;15.30;99.90
11009;DHT22;5557;51.670;7.788;2022-09-09T05:06:24;15.30;99.90
11009;DHT22;5557;51.670;7.788;2022-09-09T05:08:52;15.30;99.90
11009;DHT22;5557;51.670;7.788;2022-09-09T05:11:24;15.30;99.90
11009;DHT22;5557;51.670;7.788;2022-09-09T05:13:52;15.30;99.90
11009;DHT22;5557;51.670;7.788;2022-09-09T05:16:19;15.40;99.90
11009;DHT22;5557;51.670;7.788;2022-09-09T05:18:47;15.50;99.90
11009;DHT22;5557;51.670;7.788;2022-09-09T05:21:15;15.50;99.90
11009;DHT22;5557;51.670;7.788;2022-09-09T05:23:42;15.60;99.90
11009;DHT22;5557;51.670;7.788;2022-09-09T05:26:13;15.60;99.90
11009;DHT22;5557;51.670;7.788;2022-09-09T05:28:43;15.70;99.90
11009;DHT22;5557;51.670;7.788;2022-09-09T05:31:11;15.70;99.90
11009;DHT22;5557;51.670;7.788;2022-09-09T05:33:44;15.70;99.90
11009;DHT22;5557;51.670;7.788;2022-09-09T05:36:14;15.70;99.90
11009;DHT22;5557;51.670;7.788;2022-09-09T05:38:42;15.80;99.90
11009;DHT22;5557;51.670;7.788;2022-09-09T05:41:10;15.80;99.90
11009;DHT22;5557;51.670;7.788;2022-09-09T05:43:38;15.80;99.90
11009;DHT22;5557;51.670;7.788;2022-09-09T05:48:54;15.90;99.90
11009;DHT22;5557;51.670;7.788;2022-09-09T05:51:23;15.90;99.90
11009;DHT22;5557;51.670;7.788;2022-09-09T05:53:51;15.90;99.90
11009;DHT22;5557;51.670;7.788;2022-09-09T05:56:20;15.90;99.90
11009;DHT22;5557;51.670;7.788;2022-09-09T05:58:49;16.00;99.90
11009;DHT22;5557;51.670;7.788;2022-09-09T06:01:18;16.00;99.90
11009;DHT22;5557;51.670;7.788;2022-09-09T06:03:47;16.00;99.90
11009;DHT22;5557;51.670;7.788;2022-09-09T06:06:16;16.10;99.90
11009;DHT22;5557;51.670;7.788;2022-09-09T06:08:45;16.10;99.90
11009;DHT22;5557;51.670;7.788;2022-09-09T06:11:14;16.10;99.00
11009;DHT22;5557;51.670;7.788;2022-09-09T06:13:42;16.10;98.60
11009;DHT22;5557;51.670;7.788;2022-09-09T06:16:10;16.10;98.70
11009;DHT22;5557;51.670;7.788;2022-09-09T06:18:39;16.10;98.60
11009;DHT22;5557;51.670;7.788;2022-09-09T06:21:11;16.10;98.10
11009;DHT22;5557;51.670;7.788;2022-09-09T06:23:39;16.20;98.30
11009;DHT22;5557;51.670;7.788;2022-09-09T06:26:14;16.20;97.20
11009;DHT22;5557;51.670;7.788;2022-09-09T06:28:41;16.20;97.90
11009;DHT22;5557;51.670;7.788;2022-09-09T06:31:13;16.20;97.20
11009;DHT22;5557;51.670;7.788;2022-09-09T06:33:41;16.20;96.80
11009;DHT22;5557;51.670;7.788;2022-09-09T06:36:15;16.30;96.40
11009;DHT22;5557;51.670;7.788;2022-09-09T06:38:42;16.30;96.40
11009;DHT22;5557;51.670;7.788;2022-09-09T06:41:11;16.30;95.40
11009;DHT22;5557;51.670;7.788;2022-09-09T06:43:39;16.40;95.40
11009;DHT22;5557;51.670;7.788;2022-09-09T06:46:15;16.50;94.60
11009;DHT22;5557;51.670;7.788;2022-09-09T06:48:43;16.60;94.70
11009;DHT22;5557;51.670;7.788;2022-09-09T06:51:18;16.70;92.50
11009;DHT22;5557;51.670;7.788;2022-09-09T06:53:46;16.80;91.20
11009;DHT22;5557;51.670;7.788;2022-09-09T06:56:33;16.90;91.30
11009;DHT22;5557;51.670;7.788;2022-09-09T06:59:03;17.00;90.50
11009;DHT22;5557;51.670;7.788;2022-09-09T07:01:34;17.10;88.70
11009;DHT22;5557;51.670;7.788;2022-09-09T07:04:02;17.20;85.90
11009;DHT22;5557;51.670;7.788;2022-09-09T07:06:32;17.30;84.50
11009;DHT22;5557;51.670;7.788;2022-09-09T07:09:03;17.30;83.00
11009;DHT22;5557;51.670;7.788;2022-09-09T07:11:38;17.40;81.40
11009;DHT22;5557;51.670;7.788;2022-09-09T07:14:05;17.40;80.20
11009;DHT22;5557;51.670;7.788;2022-09-09T07:16:32;17.50;78.90
11009;DHT22;5557;51.670;7.788;2022-09-09T07:19:00;17.40;80.20
11009;DHT22;5557;51.670;7.788;2022-09-09T07:21:28;17.50;78.90
11009;DHT22;5557;51.670;7.788;2022-09-09T07:23:56;17.50;80.50
11009;DHT22;5557;51.670;7.788;2022-09-09T07:26:26;17.50;78.50
11009;DHT22;5557;51.670;7.788;2022-09-09T07:28:54;17.50;75.90
11009;DHT22;5557;51.670;7.788;2022-09-09T07:31:28;17.60;74.70
11009;DHT22;5557;51.670;7.788;2022-09-09T07:33:58;17.70;77.30
11009;DHT22;5557;51.670;7.788;2022-09-09T07:36:28;17.90;69.60
11009;DHT22;5557;51.670;7.788;2022-09-09T07:39:11;18.00;65.30
11009;DHT22;5557;51.670;7.788;2022-09-09T07:41:45;18.00;64.80
11009;DHT22;5557;51.670;7.788;2022-09-09T07:44:19;18.10;67.30
11009;DHT22;5557;51.670;7.788;2022-09-09T07:46:48;18.20;63.60
11009;DHT22;5557;51.670;7.788;2022-09-09T07:49:15;18.10;60.30
11009;DHT22;5557;51.670;7.788;2022-09-09T07:51:47;18.10;63.20
11009;DHT22;5557;51.670;7.788;2022-09-09T07:54:17;17.90;66.70
11009;DHT22;5557;51.670;7.788;2022-09-09T07:56:47;17.60;74.70
11009;DHT22;5557;51.670;7.788;2022-09-09T07:59:14;17.40;83.30
11009;DHT22;5557;51.670;7.788;2022-09-09T08:01:43;17.40;85.60
11009;DHT22;5557;51.670;7.788;2022-09-09T08:04:16;17.40;83.80
11009;DHT22;5557;51.670;7.788;2022-09-09T08:06:46;17.90;80.60
11009;DHT22;5557;51.670;7.788;2022-09-09T08:09:14;18.60;59.50
11009;DHT22;5557;51.670;7.788;2022-09-09T08:11:42;18.80;54.10
11009;DHT22;5557;51.670;7.788;2022-09-09T08:14:10;19.30;48.90
11009;DHT22;5557;51.670;7.788;2022-09-09T08:16:43;20.00;34.80
11009;DHT22;5557;51.670;7.788;2022-09-09T08:19:10;20.90;31.10
11009;DHT22;5557;51.670;7.788;2022-09-09T08:21:40;21.30;19.30
11009;DHT22;5557;51.670;7.788;2022-09-09T08:24:08;21.80;19.20
11009;DHT22;5557;51.670;7.788;2022-09-09T08:26:39;22.30;10.20
11009;DHT22;5557;51.670;7.788;2022-09-09T08:29:07;21.90;11.40
11009;DHT22;5557;51.670;7.788;2022-09-09T08:31:37;21.10;17.10
11009;DHT22;5557;51.670;7.788;2022-09-09T08:34:06;20.40;23.70
11009;DHT22;5557;51.670;7.788;2022-09-09T08:36:35;19.80;23.80
11009;DHT22;5557;51.670;7.788;2022-09-09T08:39:04;19.60;26.00
11009;DHT22;5557;51.670;7.788;2022-09-09T08:45:15;19.40;30.10
11009;DHT22;5557;51.670;7.788;2022-09-09T08:50:56;19.70;28.80
11009;DHT22;5557;51.670;7.788;2022-09-09T08:53:33;20.70;22.00
11009;DHT22;5557;51.670;7.788;2022-09-09T08:56:11;21.60;13.70
11009;DHT22;5557;51.670;7.788;2022-09-09T08:58:50;22.00;10.00
11009;DHT22;5557;51.670;7.788;2022-09-09T09:01:42;22.20;6.20
11009;DHT22;5557;51.670;7.788;2022-09-09T09:04:56;22.00;5.50
11009;DHT22;5557;51.670;7.788;2022-09-09T09:07:41;21.70;4.90
11009;DHT22;5557;51.670;7.788;2022-09-09T09:10:51;21.10;10.60
11009;DHT22;5557;51.670;7.788;2022-09-09T09:13:45;21.60;6.30
11009;DHT22;5557;51.670;7.788;2022-09-09T09:16:34;21.80;5.20
11009;DHT22;5557;51.670;7.788;2022-09-09T09:19:05;22.10;2.60
11009;DHT22;5557;51.670;7.788;2022-09-09T09:22:26;21.90;2.10
11009;DHT22;5557;51.670;7.788;2022-09-09T09:25:27;21.60;3.10
11009;DHT22;5557;51.670;7.788;2022-09-09T09:28:13;21.70;4.30
11009;DHT22;5557;51.670;7.788;2022-09-09T09:30:58;21.80;3.80
11009;DHT22;5557;51.670;7.788;2022-09-09T09:33:31;21.90;4.30
11009;DHT22;5557;51.670;7.788;2022-09-09T09:36:01;22.00;1.40
11009;DHT22;5557;51.670;7.788;2022-09-09T09:38:29;21.80;1.90
11009;DHT22;5557;51.670;7.788;2022-09-09T09:41:16;22.00;1.10
11009;DHT22;5557;51.670;7.788;2022-09-09T09:43:53;21.70;2.90
11009;DHT22;5557;51.670;7.788;2022-09-09T09:46:22;21.50;1.70
11009;DHT22;5557;51.670;7.788;2022-09-09T09:48:58;21.30;4.60
11009;DHT22;5557;51.670;7.788;2022-09-09T09:51:25;21.20;6.70
11009;DHT22;5557;51.670;7.788;2022-09-09T09:53:53;21.20;6.00
11009;DHT22;5557;51.670;7.788;2022-09-09T09:56:27;21.00;7.80
11009;DHT22;5557;51.670;7.788;2022-09-09T09:58:59;21.20;5.20
11009;DHT22;5557;51.670;7.788;2022-09-09T10:01:35;21.70;3.50
11009;DHT22;5557;51.670;7.788;2022-09-09T10:04:23;22.00;2.70
11009;DHT22;5557;51.670;7.788;2022-09-09T10:06:50;22.30;1.00
11009;DHT22;5557;51.670;7.788;2022-09-09T10:09:29;22.40;1.00
11009;DHT22;5557;51.670;7.788;2022-09-09T10:12:45;22.90;1.00
11009;DHT22;5557;51.670;7.788;2022-09-09T10:18:22;23.40;1.00
11009;DHT22;5557;51.670;7.788;2022-09-09T10:21:13;22.80;1.00
11009;DHT22;5557;51.670;7.788;2022-09-09T10:24:14;22.20;1.00
11009;DHT22;5557;51.670;7.788;2022-09-09T10:30:35;23.50;1.00
11009;DHT22;5557;51.670;7.788;2022-09-09T10:33:19;23.80;1.00
11009;DHT22;5557;51.670;7.788;2022-09-09T10:36:12;23.70;1.00
11009;DHT22;5557;51.670;7.788;2022-09-09T10:38:45;23.20;1.00
11009;DHT22;5557;51.670;7.788;2022-09-09T10:41:25;22.80;1.00
11009;DHT22;5557;51.670;7.788;2022-09-09T10:47:17;22.60;1.00
11009;DHT22;5557;51.670;7.788;2022-09-09T10:53:50;21.70;1.00
11009;DHT22;5557;51.670;7.788;2022-09-09T10:56:21;21.60;1.00
11009;DHT22;5557;51.670;7.788;2022-09-09T10:59:04;21.60;1.00
11009;DHT22;5557;51.670;7.788;2022-09-09T11:01:39;22.10;1.00
11009;DHT22;5557;51.670;7.788;2022-09-09T11:04:17;22.40;1.00
11009;DHT22;5557;51.670;7.788;2022-09-09T11:06:55;22.90;1.00
11009;DHT22;5557;51.670;7.788;2022-09-09T11:09:28;22.90;1.00
11009;DHT22;5557;51.670;7.788;2022-09-09T11:11:58;22.90;1.00
11009;DHT22;5557;51.670;7.788;2022-09-09T11:14:32;23.10;1.00
11009;DHT22;5557;51.670;7.788;2022-09-09T11:19:45;23.90;1.00
11009;DHT22;5557;51.670;7.788;2022-09-09T11:22:34;23.90;1.00
11009;DHT22;5557;51.670;7.788;2022-09-09T11:25:15;23.60;1.00
11009;DHT22;5557;51.670;7.788;2022-09-09T11:30:21;24.60;1.00
11009;DHT22;5557;51.670;7.788;2022-09-09T11:36:44;24.50;1.00
11009;DHT22;5557;51.670;7.788;2022-09-09T11:39:37;24.70;1.00
11009;DHT22;5557;51.670;7.788;2022-09-09T11:44:41;24.20;1.00
11009;DHT22;5557;51.670;7.788;2022-09-09T11:47:41;24.40;1.00
11009;DHT22;5557;51.670;7.788;2022-09-09T11:50:28;23.90;1.00
11009;DHT22;5557;51.670;7.788;2022-09-09T11:53:18;23.60;1.00
11009;DHT22;5557;51.670;7.788;2022-09-09T11:56:07;23.30;1.00
11009;DHT22;5557;51.670;7.788;2022-09-09T12:01:43;24.40;1.00
11009;DHT22;5557;51.670;7.788;2022-09-09T12:04:15;24.30;1.00
11009;DHT22;5557;51.670;7.788;2022-09-09T12:07:02;23.70;1.00
11009;DHT22;5557;51.670;7.788;2022-09-09T12:12:34;24.30;1.00
11009;DHT22;5557;51.670;7.788;2022-09-09T12:15:25;24.60;1.00
11009;DHT22;5557;51.670;7.788;2022-09-09T12:17:57;24.80;1.00
11009;DHT22;5557;51.670;7.788;2022-09-09T12:20:38;25.00;1.00
11009;DHT22;5557;51.670;7.788;2022-09-09T12:23:50;25.20;1.00
11009;DHT22;5557;51.670;7.788;2022-09-09T12:26:32;25.10;1.00
11009;DHT22;5557;51.670;7.788;2022-09-09T12:32:45;25.40;1.00
11009;DHT22;5557;51.670;7.788;2022-09-09T12:35:21;25.80;1.00
11009;DHT22;5557;51.670;7.788;2022-09-09T12:37:59;26.00;1.00
11009;DHT22;5557;51.670;7.788;2022-09-09T12:40:32;25.10;1.00
11009;DHT22;5557;51.670;7.788;2022-09-09T12:43:16;24.10;1.00
11009;DHT22;5557;51.670;7.788;2022-09-09T12:45:44;23.70;1.00
11009;DHT22;5557;51.670;7.788;2022-09-09T12:48:12;23.40;1.00
11009;DHT22;5557;51.670;7.788;2022-09-09T12:50:50;23.30;1.00
11009;DHT22;5557;51.670;7.788;2022-09-09T12:53:35;23.40;1.00
11009;DHT22;5557;51.670;7.788;2022-09-09T12:56:08;23.50;1.00
11009;DHT22;5557;51.670;7.788;2022-09-09T12:58:36;23.10;1.00
11009;DHT22;5557;51.670;7.788;2022-09-09T13:01:05;22.70;1.00
11009;DHT22;5557;51.670;7.788;2022-09-09T13:03:42;22.40;1.00
11009;DHT22;5557;51.670;7.788;2022-09-09T13:06:18;22.50;1.00
11009;DHT22;5557;51.670;7.788;2022-09-09T13:08:53;22.60;1.00
11009;DHT22;5557;51.670;7.788;2022-09-09T13:11:25;22.70;1.00
11009;DHT22;5557;51.670;7.788;2022-09-09T13:13:55;22.60;1.00
11009;DHT22;5557;51.670;7.788;2022-09-09T13:16:40;22.20;1.00
11009;DHT22;5557;51.670;7.788;2022-09-09T13:19:13;21.80;1.00
11009;DHT22;5557;51.670;7.788;2022-09-09T13:21:42;21.50;1.00
11009;DHT22;5557;51.670;7.788;2022-09-09T13:24:32;21.40;1.00
11009;DHT22;5557;51.670;7.788;2022-09-09T13:27:26;21.10;2.90
11009;DHT22;5557;51.670;7.788;2022-09-09T13:29:54;20.10;24.80
11009;DHT22;5557;51.670;7.788;2022-09-09T13:32:24;19.40;30.70
11009;DHT22;5557;51.670;7.788;2022-09-09T13:34:55;19.00;44.00
11009;DHT22;5557;51.670;7.788;2022-09-09T13:37:35;18.90;44.00
11009;DHT22;5557;51.670;7.788;2022-09-09T13:40:04;19.10;47.60
11009;DHT22;5557;51.670;7.788;2022-09-09T13:42:37;19.50;39.90
11009;DHT22;5557;51.670;7.788;2022-09-09T13:45:14;19.80;29.10
11009;DHT22;5557;51.670;7.788;2022-09-09T13:47:42;20.10;29.40
11009;DHT22;5557;51.670;7.788;2022-09-09T13:50:20;20.10;25.00
11009;DHT22;5557;51.670;7.788;2022-09-09T13:52:48;20.10;25.00
11009;DHT22;5557;51.670;7.788;2022-09-09T13:55:18;20.00;22.80
11009;DHT22;5557;51.670;7.788;2022-09-09T13:57:59;20.10;25.00
11009;DHT22;5557;51.670;7.788;2022-09-09T14:00:31;20.30;26.80
11009;DHT22;5557;51.670;7.788;2022-09-09T14:02:58;20.40;19.90
11009;DHT22;5557;51.670;7.788;2022-09-09T14:05:30;20.50;18.60
11009;DHT22;5557;51.670;7.788;2022-09-09T14:07:58;20.60;16.50
11009;DHT22;5557;51.670;7.788;2022-09-09T14:10:27;20.90;14.50
11009;DHT22;5557;51.670;7.788;2022-09-09T14:12:54;21.20;12.20
11009;DHT22;5557;51.670;7.788;2022-09-09T14:15:21;21.10;12.70
11009;DHT22;5557;51.670;7.788;2022-09-09T14:17:53;21.00;11.60
11009;DHT22;5557;51.670;7.788;2022-09-09T14:20:25;21.00;12.80
11009;DHT22;5557;51.670;7.788;2022-09-09T14:22:52;21.30;9.80
11009;DHT22;5557;51.670;7.788;2022-09-09T14:25:20;21.60;10.00
11009;DHT22;5557;51.670;7.788;2022-09-09T14:27:47;21.90;8.40
11009;DHT22;5557;51.670;7.788;2022-09-09T14:30:14;21.80;6.60
11009;DHT22;5557;51.670;7.788;2022-09-09T14:32:41;21.50;8.60
11009;DHT22;5557;51.670;7.788;2022-09-09T14:35:09;21.30;8.90
11009;DHT22;5557;51.670;7.788;2022-09-09T14:37:36;21.20;8.80
11009;DHT22;5557;51.670;7.788;2022-09-09T14:40:04;21.20;9.30
11009;DHT22;5557;51.670;7.788;2022-09-09T14:42:31;21.20;10.50
11009;DHT22;5557;51.670;7.788;2022-09-09T14:44:58;21.00;10.80
11009;DHT22;5557;51.670;7.788;2022-09-09T14:47:25;20.90;12.00
11009;DHT22;5557;51.670;7.788;2022-09-09T14:49:52;20.90;13.30
11009;DHT22;5557;51.670;7.788;2022-09-09T14:52:23;20.80;13.70
11009;DHT22;5557;51.670;7.788;2022-09-09T14:54:50;20.70;17.50
11009;DHT22;5557;51.670;7.788;2022-09-09T14:57:17;20.60;18.00
11009;DHT22;5557;51.670;7.788;2022-09-09T14:59:44;20.50;18.40
11009;DHT22;5557;51.670;7.788;2022-09-09T15:02:11;20.40;16.40
11009;DHT22;5557;51.670;7.788;2022-09-09T15:04:40;20.40;18.20
11009;DHT22;5557;51.670;7.788;2022-09-09T15:07:07;20.30;17.20
11009;DHT22;5557;51.670;7.788;2022-09-09T15:09:34;20.20;17.70
11009;DHT22;5557;51.670;7.788;2022-09-09T15:12:01;20.20;16.30
11009;DHT22;5557;51.670;7.788;2022-09-09T15:14:28;20.30;14.80
11009;DHT22;5557;51.670;7.788;2022-09-09T15:16:55;20.40;8.60
11009;DHT22;5557;51.670;7.788;2022-09-09T15:19:25;20.50;7.40
11009;DHT22;5557;51.670;7.788;2022-09-09T15:21:52;20.60;7.50
11009;DHT22;5557;51.670;7.788;2022-09-09T15:24:18;20.70;6.10
11009;DHT22;5557;51.670;7.788;2022-09-09T15:26:46;20.80;4.60
11009;DHT22;5557;51.670;7.788;2022-09-09T15:29:13;20.90;4.70
11009;DHT22;5557;51.670;7.788;2022-09-09T15:31:40;21.00;3.70
11009;DHT22;5557;51.670;7.788;2022-09-09T15:34:07;21.10;2.10
11009;DHT22;5557;51.670;7.788;2022-09-09T15:36:39;21.20;3.00
11009;DHT22;5557;51.670;7.788;2022-09-09T15:39:09;21.00;1.70
11009;DHT22;5557;51.670;7.788;2022-09-09T15:41:42;20.80;1.80
11009;DHT22;5557;51.670;7.788;2022-09-09T15:44:10;20.60;3.90
11009;DHT22;5557;51.670;7.788;2022-09-09T15:46:40;20.60;5.50
11009;DHT22;5557;51.670;7.788;2022-09-09T15:49:14;20.50;6.40
11009;DHT22;5557;51.670;7.788;2022-09-09T15:51:43;20.30;6.10
11009;DHT22;5557;51.670;7.788;2022-09-09T15:54:18;20.10;7.10
11009;DHT22;5557;51.670;7.788;2022-09-09T15:56:53;20.10;7.10
11009;DHT22;5557;51.670;7.788;2022-09-09T15:59:27;20.00;7.10
11009;DHT22;5557;51.670;7.788;2022-09-09T16:01:58;19.90;9.00
11009;DHT22;5557;51.670;7.788;2022-09-09T16:04:27;19.80;9.50
11009;DHT22;5557;51.670;7.788;2022-09-09T16:07:01;19.70;11.00
11009;DHT22;5557;51.670;7.788;2022-09-09T16:09:29;19.60;13.20
11009;DHT22;5557;51.670;7.788;2022-09-09T16:12:01;19.60;15.80
11009;DHT22;5557;51.670;7.788;2022-09-09T16:14:28;19.50;18.00
11009;DHT22;5557;51.670;7.788;2022-09-09T16:17:00;19.40;24.50
11009;DHT22;5557;51.670;7.788;2022-09-09T16:19:27;19.10;33.40
11009;DHT22;5557;51.670;7.788;2022-09-09T16:21:57;18.60;42.20
11009;DHT22;5557;51.670;7.788;2022-09-09T16:24:24;18.10;38.20
11009;DHT22;5557;51.670;7.788;2022-09-09T16:26:54;17.60;48.90
11009;DHT22;5557;51.670;7.788;2022-09-09T16:29:23;17.30;56.20
11009;DHT22;5557;51.670;7.788;2022-09-09T16:31:54;17.10;57.30
11009;DHT22;5557;51.670;7.788;2022-09-09T16:34:26;16.90;60.50
11009;DHT22;5557;51.670;7.788;2022-09-09T16:36:53;16.70;60.70
11009;DHT22;5557;51.670;7.788;2022-09-09T16:39:21;16.50;62.70
11009;DHT22;5557;51.670;7.788;2022-09-09T16:41:48;16.50;65.30
11009;DHT22;5557;51.670;7.788;2022-09-09T16:44:17;16.40;73.90
11009;DHT22;5557;51.670;7.788;2022-09-09T16:46:47;16.20;76.00
11009;DHT22;5557;51.670;7.788;2022-09-09T16:49:15;16.00;83.20
11009;DHT22;5557;51.670;7.788;2022-09-09T16:51:48;15.70;87.70
11009;DHT22;5557;51.670;7.788;2022-09-09T16:54:16;15.60;91.90
11009;DHT22;5557;51.670;7.788;2022-09-09T16:56:45;15.40;93.50
11009;DHT22;5557;51.670;7.788;2022-09-09T16:59:14;15.40;96.30
11009;DHT22;5557;51.670;7.788;2022-09-09T17:01:43;15.40;99.40
11009;DHT22;5557;51.670;7.788;2022-09-09T17:04:16;15.30;99.20
11009;DHT22;5557;51.670;7.788;2022-09-09T17:06:48;15.30;99.70
11009;DHT22;5557;51.670;7.788;2022-09-09T17:09:17;15.30;99.90
11009;DHT22;5557;51.670;7.788;2022-09-09T17:11:44;15.40;99.90
11009;DHT22;5557;51.670;7.788;2022-09-09T17:14:14;15.50;99.90
11009;DHT22;5557;51.670;7.788;2022-09-09T17:16:42;15.60;99.90
11009;DHT22;5557;51.670;7.788;2022-09-09T17:19:10;15.60;99.90
11009;DHT22;5557;51.670;7.788;2022-09-09T17:21:38;15.70;99.90
11009;DHT22;5557;51.670;7.788;2022-09-09T17:24:28;15.80;99.90
11009;DHT22;5557;51.670;7.788;2022-09-09T17:26:56;15.80;99.90
11009;DHT22;5557;51.670;7.788;2022-09-09T17:29:25;15.80;99.90